Main page
METAR-TAF:

METAR-TAF

Airports :

Oran Es Sénia Airport

Oran, Algeria

latitude: 35-38N, longitude: 000-36W, elevation: 90 m

Current weather observation

The report was made 55 minutes ago, at 23:00 UTC
Wind 3 kt from the North/Northwest
Temperature 13°C
Humidity 88%
Pressure 1023 hPa
Visibility 10 km or more
no clouds below 1500 m and no cumulonimbus

METAR: DAOO 282300Z 34003KT CAVOK 13/11 Q1023

Time: 00:55 (23:55 UTC)

Forecast

The report was made 55 minutes ago, at 23:00 UTC
Forecast valid from 29 at 00 UTC to 29 at 24 UTC
Wind 2 kt from variable directions
Visibility 10 km or more
no clouds below 1500 m and no cumulonimbus
Becoming
from 29 at 15 UTC to 29 at 18 UTC
Wind 12 kt from the East/Northeast

TAF: DAOO 282300Z 2900/2924 VRB02KT CAVOK BECMG 2915/2918 06012KT

Weather observations and forecasts of more than 4000 airports (METAR and TAF reports).

The available stations are represented by yellow and red dots on the map.

Hover mouse over dot to see the name of the station.

Then click to see weather observations and forecasts.

To change the map : click on the green buttons with a black cross to zoom in, on the green button with a dash to zoom out, or on the green arrows for adjacent maps.


METAR-TAF: